Time;durP1;ratioP1;P1;durP2;ratioP2;P2;SDS_P1;SDS_P2;PMS_P1;PMS_P2;Temp;Humidity;BMP_temperature;BMP_pressure;BME280_temperature;BME280_humidity;BME280_pressure;Samples;Min_cycle;Max_cycle;Signal;HPM_P1;HPM_P2
2021/03/04 00:00:37;;;;;;;24.33;15.73;;;5.70;87.50;;;;;;5071036;28;20554;-71
2021/03/04 00:03:05;;;;;;;27.27;14.87;;;5.70;87.30;;;;;;5070053;28;20047;-72
2021/03/04 00:05:30;;;;;;;26.37;14.80;;;5.70;87.40;;;;;;5071123;28;20298;-71
2021/03/04 00:07:57;;;;;;;22.17;13.47;;;5.60;87.40;;;;;;5070747;28;20356;-71
2021/03/04 00:10:23;;;;;;;27.67;15.37;;;5.60;87.50;;;;;;5069941;28;20076;-72
2021/03/04 00:12:50;;;;;;;26.63;15.83;;;5.70;87.60;;;;;;5070579;28;20309;-72
2021/03/04 00:15:28;;;;;;;24.90;15.47;;;5.70;87.00;;;;;;5070803;28;20298;-72
2021/03/04 00:17:54;;;;;;;28.90;16.63;;;5.70;87.20;;;;;;5069991;28;20299;-71
2021/03/04 00:20:23;;;;;;;22.77;14.03;;;5.70;87.30;;;;;;5070684;28;20702;-71
2021/03/04 00:22:50;;;;;;;26.57;15.00;;;5.70;88.20;;;;;;5070615;28;20139;-71
2021/03/04 00:25:17;;;;;;;25.70;15.13;;;5.80;87.20;;;;;;5069864;28;20401;-71
2021/03/04 00:27:48;;;;;;;26.03;14.90;;;5.70;87.10;;;;;;5072480;28;20052;-71
2021/03/04 00:30:16;;;;;;;24.80;15.70;;;5.70;86.80;;;;;;5073483;28;20306;-72
2021/03/04 00:32:42;;;;;;;28.83;16.20;;;5.70;87.00;;;;;;5073855;28;20129;-71
2021/03/04 00:35:09;;;;;;;28.73;15.77;;;5.60;87.30;;;;;;5074112;28;20291;-72
2021/03/04 00:37:35;;;;;;;28.17;15.47;;;5.60;87.10;;;;;;5073545;28;20632;-72
2021/03/04 00:40:04;;;;;;;27.43;15.50;;;5.60;86.80;;;;;;5073799;28;20297;-71
2021/03/04 00:42:30;;;;;;;27.47;16.30;;;5.50;86.70;;;;;;5074271;28;20306;-71
2021/03/04 00:44:55;;;;;;;30.07;18.23;;;5.40;86.90;;;;;;5073223;28;20295;-71
2021/03/04 00:47:21;;;;;;;31.50;15.43;;;5.30;87.20;;;;;;5073926;28;20125;-71
2021/03/04 00:49:46;;;;;;;28.97;15.77;;;5.20;87.40;;;;;;5073759;28;20044;-71
2021/03/04 00:52:12;;;;;;;31.83;17.27;;;5.30;87.50;;;;;;5072998;28;20052;-71
2021/03/04 00:54:38;;;;;;;28.00;14.37;;;5.30;87.50;;;;;;5073696;28;20052;-71
2021/03/04 00:57:04;;;;;;;28.53;16.67;;;5.30;87.50;;;;;;5073733;28;20307;-71
2021/03/04 00:59:30;;;;;;;25.47;14.87;;;5.30;87.50;;;;;;5073339;28;20045;-71
2021/03/04 01:01:55;;;;;;;27.27;15.70;;;5.40;87.60;;;;;;5073494;28;20065;-72
2021/03/04 01:04:21;;;;;;;31.83;17.83;;;5.30;87.50;;;;;;5073520;28;20090;-71
2021/03/04 01:06:46;;;;;;;30.23;17.70;;;5.40;87.80;;;;;;5072808;28;20048;-71
2021/03/04 01:09:12;;;;;;;25.20;15.33;;;5.40;87.60;;;;;;5073324;28;20508;-71
2021/03/04 01:11:38;;;;;;;27.40;16.20;;;5.50;87.50;;;;;;5073757;28;20504;-71
2021/03/04 01:14:04;;;;;;;32.43;18.07;;;5.50;87.70;;;;;;5072770;28;20497;-71
2021/03/04 01:16:29;;;;;;;29.30;18.40;;;5.50;87.40;;;;;;5073731;28;20044;-71
2021/03/04 01:18:55;;;;;;;27.30;15.77;;;5.50;87.70;;;;;;5073204;28;20079;-72
2021/03/04 01:21:20;;;;;;;29.23;16.70;;;5.50;87.70;;;;;;5072416;28;20057;-72
2021/03/04 01:23:46;;;;;;;31.23;16.17;;;5.50;87.50;;;;;;5073020;28;20135;-71
2021/03/04 01:26:12;;;;;;;27.13;16.80;;;5.60;87.30;;;;;;5073053;28;20048;-71
2021/03/04 01:28:38;;;;;;;25.37;16.20;;;5.50;87.20;;;;;;5072777;28;20115;-71
2021/03/04 01:31:04;;;;;;;29.20;17.83;;;5.50;87.30;;;;;;5073072;28;20444;-71
2021/03/04 01:33:30;;;;;;;26.07;16.27;;;5.50;87.10;;;;;;5072367;28;20064;-71
2021/03/04 01:35:55;;;;;;;27.70;17.70;;;5.40;87.30;;;;;;5072963;28;20507;-71
2021/03/04 01:38:21;;;;;;;25.97;17.37;;;5.40;87.60;;;;;;5072844;28;20044;-71
2021/03/04 01:40:47;;;;;;;28.57;17.23;;;5.30;87.60;;;;;;5072373;28;20699;-71
2021/03/04 01:43:12;;;;;;;28.80;17.50;;;5.30;87.60;;;;;;5073042;28;20064;-71
2021/03/04 01:45:39;;;;;;;26.97;17.17;;;5.40;87.80;;;;;;5073021;28;20076;-71
2021/03/04 01:48:05;;;;;;;28.47;17.13;;;5.40;87.60;;;;;;5071857;28;20750;-71
2021/03/04 01:50:31;;;;;;;32.43;18.90;;;5.30;87.40;;;;;;5072916;28;20079;-71
2021/03/04 01:52:58;;;;;;;29.40;17.50;;;5.30;87.70;;;;;;5072496;28;20318;-71
2021/03/04 01:55:25;;;;;;;29.97;18.13;;;5.20;87.70;;;;;;5071926;28;20355;-72
2021/03/04 01:57:51;;;;;;;31.07;18.27;;;5.20;87.70;;;;;;5072469;28;20295;-71
2021/03/04 02:00:20;;;;;;;31.33;17.77;;;5.20;87.80;;;;;;5072571;28;20317;-72
2021/03/04 02:02:45;;;;;;;33.33;18.23;;;5.20;87.80;;;;;;5071635;28;20055;-71
2021/03/04 02:05:13;;;;;;;30.97;16.80;;;5.10;87.80;;;;;;5072293;28;20298;-71
2021/03/04 02:07:48;;;;;;;32.07;18.23;;;5.10;88.20;;;;;;5072145;28;20049;-71
2021/03/04 02:10:21;;;;;;;33.83;18.23;;;5.10;88.50;;;;;;5071594;28;20324;-71
2021/03/04 02:13:00;;;;;;;32.23;18.57;;;5.30;88.40;;;;;;5072233;28;20295;-71
2021/03/04 02:15:35;;;;;;;31.23;18.03;;;5.40;88.00;;;;;;5072247;28;20302;-71
2021/03/04 02:18:04;;;;;;;35.27;20.53;;;5.40;87.60;;;;;;5071337;28;20338;-71
2021/03/04 02:20:46;;;;;;;39.37;20.97;;;5.30;87.80;;;;;;5072530;28;20324;-72
2021/03/04 02:23:14;;;;;;;39.72;20.73;;;5.30;87.90;;;;;;5071345;28;20299;-71
2021/03/04 02:26:28;;;;;;;35.80;21.00;;;5.20;88.10;;;;;;5071788;28;20560;-71
2021/03/04 02:28:56;;;;;;;33.77;19.03;;;5.20;88.20;;;;;;5055036;28;20306;-71
2021/03/04 02:31:22;;;;;;;33.67;20.50;;;5.30;88.30;;;;;;5070961;28;20372;-72
2021/03/04 02:33:49;;;;;;;33.97;19.67;;;5.40;88.40;;;;;;5071673;28;20303;-71
2021/03/04 02:36:17;;;;;;;37.03;20.37;;;5.40;88.00;;;;;;5071961;28;20073;-71
2021/03/04 02:38:45;;;;;;;34.17;19.37;;;5.30;87.90;;;;;;5070878;28;20349;-72
2021/03/04 02:41:11;;;;;;;33.80;19.40;;;5.30;88.00;;;;;;5071601;28;20628;-71
2021/03/04 02:43:39;;;;;;;31.60;18.47;;;5.20;88.20;;;;;;5071807;28;20780;-71
2021/03/04 02:46:09;;;;;;;37.33;21.20;;;5.10;88.30;;;;;;5070750;28;20792;-71
2021/03/04 02:48:37;;;;;;;31.52;17.63;;;5.10;88.40;;;;;;5071897;28;20327;-71
2021/03/04 02:51:04;;;;;;;29.90;17.17;;;5.00;88.60;;;;;;5070045;28;20048;-72
2021/03/04 02:53:30;;;;;;;30.73;17.17;;;5.00;88.90;;;;;;5071722;28;20390;-71
2021/03/04 02:55:58;;;;;;;28.63;15.57;;;5.10;88.80;;;;;;5071507;28;20302;-72
2021/03/04 02:58:25;;;;;;;28.70;17.60;;;5.20;88.80;;;;;;5070861;28;20303;-72
2021/03/04 03:00:51;;;;;;;25.10;15.63;;;5.20;88.40;;;;;;5071462;28;20351;-71
2021/03/04 03:03:17;;;;;;;28.30;15.70;;;5.20;88.20;;;;;;5071357;28;20302;-71
2021/03/04 03:05:45;;;;;;;24.93;15.50;;;5.00;88.00;;;;;;5070654;28;20132;-71
2021/03/04 03:08:18;;;;;;;31.93;16.63;;;4.90;88.60;;;;;;5071549;28;20302;-71
2021/03/04 03:10:46;;;;;;;27.13;15.83;;;4.80;88.80;;;;;;5071319;28;20364;-71
2021/03/04 03:13:13;;;;;;;22.57;14.30;;;4.70;89.10;;;;;;5070577;28;20329;-71
2021/03/04 03:15:39;;;;;;;19.73;12.97;;;4.60;89.10;;;;;;5071429;28;20368;-71
2021/03/04 03:18:06;;;;;;;18.73;13.23;;;4.60;89.20;;;;;;5071139;28;20302;-72
2021/03/04 03:20:32;;;;;;;22.63;13.73;;;4.50;89.50;;;;;;5070781;28;20298;-72
2021/03/04 03:22:58;;;;;;;19.77;11.90;;;4.40;89.60;;;;;;5071411;28;20356;-71
2021/03/04 03:25:24;;;;;;;22.47;13.80;;;4.40;89.50;;;;;;5071289;28;20302;-71
2021/03/04 03:27:50;;;;;;;23.00;13.73;;;4.40;89.50;;;;;;5070672;28;20296;-71
2021/03/04 03:30:21;;;;;;;23.80;13.67;;;4.50;89.50;;;;;;5071009;28;20404;-71
2021/03/04 03:33:11;;;;;;;21.98;13.93;;;4.40;89.70;;;;;;5070775;28;20053;-71
2021/03/04 03:35:38;;;;;;;23.67;14.03;;;4.40;90.00;;;;;;5071556;28;20060;-71
2021/03/04 03:38:04;;;;;;;21.30;13.23;;;4.40;89.60;;;;;;5071137;28;20302;-71
2021/03/04 03:40:32;;;;;;;20.90;12.97;;;4.40;89.80;;;;;;5070643;28;20779;-71
2021/03/04 03:43:01;;;;;;;21.90;13.67;;;4.40;90.00;;;;;;5070973;28;20683;-71
2021/03/04 03:45:30;;;;;;;19.23;13.10;;;4.30;90.00;;;;;;5071201;28;20866;-71
2021/03/04 03:47:56;;;;;;;21.80;13.13;;;4.30;90.10;;;;;;5070423;28;20298;-72
2021/03/04 03:50:24;;;;;;;20.47;13.07;;;4.40;90.00;;;;;;5070964;28;20319;-72
2021/03/04 03:52:51;;;;;;;19.53;11.60;;;4.50;90.00;;;;;;5071034;28;20298;-72
2021/03/04 03:55:18;;;;;;;22.13;12.50;;;4.40;90.00;;;;;;5070363;28;20386;-72
2021/03/04 03:57:45;;;;;;;21.23;13.57;;;4.40;90.00;;;;;;5070866;28;20299;-72
2021/03/04 04:00:13;;;;;;;20.13;12.37;;;4.40;90.00;;;;;;5070846;28;20649;-72
2021/03/04 04:02:39;;;;;;;19.57;12.53;;;4.40;89.90;;;;;;5072049;28;20705;-72
2021/03/04 04:05:06;;;;;;;18.30;11.00;;;4.40;89.60;;;;;;5074801;28;20678;-72
2021/03/04 04:07:33;;;;;;;18.43;11.63;;;4.30;89.60;;;;;;5074881;28;20748;-71
2021/03/04 04:10:00;;;;;;;19.70;12.03;;;4.30;89.80;;;;;;5073934;28;20303;-72
2021/03/04 04:12:26;;;;;;;18.57;11.37;;;4.30;89.90;;;;;;5074494;28;20360;-72
2021/03/04 04:14:51;;;;;;;19.13;11.70;;;4.30;89.90;;;;;;5074751;28;20333;-72
2021/03/04 04:17:19;;;;;;;19.17;12.13;;;4.40;89.80;;;;;;5073596;28;20051;-72
2021/03/04 04:19:45;;;;;;;20.77;13.00;;;4.40;89.80;;;;;;5074422;28;20048;-72
2021/03/04 04:22:12;;;;;;;20.70;12.47;;;4.30;90.00;;;;;;5074325;28;20298;-72
2021/03/04 04:24:38;;;;;;;20.00;12.80;;;4.30;90.10;;;;;;5074008;28;20295;-72
2021/03/04 04:27:04;;;;;;;19.83;12.47;;;4.30;90.20;;;;;;5074122;28;20668;-72
2021/03/04 04:29:29;;;;;;;21.03;13.70;;;4.20;90.20;;;;;;5073873;28;20302;-72
2021/03/04 04:31:56;;;;;;;16.70;10.60;;;4.20;90.90;;;;;;5074057;28;20307;-72
2021/03/04 04:34:21;;;;;;;21.97;11.67;;;4.20;90.40;;;;;;5074187;28;20533;-72
2021/03/04 04:36:47;;;;;;;17.53;11.47;;;4.20;90.30;;;;;;5073528;28;20337;-72
2021/03/04 04:39:13;;;;;;;18.23;10.27;;;4.20;90.30;;;;;;5073931;28;20512;-72
2021/03/04 04:41:39;;;;;;;14.93;10.47;;;4.20;90.30;;;;;;5073936;28;20051;-72
2021/03/04 04:44:05;;;;;;;17.40;10.77;;;4.20;90.30;;;;;;5073166;28;20093;-72
2021/03/04 04:46:30;;;;;;;16.80;10.13;;;4.10;90.30;;;;;;5074412;28;20156;-72
2021/03/04 04:48:56;;;;;;;17.60;10.83;;;4.10;90.40;;;;;;5073871;28;20322;-72
2021/03/04 04:51:22;;;;;;;20.63;11.13;;;4.10;90.40;;;;;;5072934;28;20143;-72
2021/03/04 04:53:47;;;;;;;18.23;11.27;;;4.10;90.50;;;;;;5073810;28;20044;-72
2021/03/04 04:56:16;;;;;;;17.60;11.33;;;4.20;90.40;;;;;;5073683;28;20408;-72
2021/03/04 04:58:42;;;;;;;16.83;11.67;;;4.20;90.50;;;;;;5072914;28;20374;-72
2021/03/04 05:01:08;;;;;;;15.93;9.97;;;4.30;90.40;;;;;;5073888;28;20389;-72
2021/03/04 05:03:34;;;;;;;17.37;11.20;;;4.30;90.30;;;;;;5073976;28;20044;-72
2021/03/04 05:06:01;;;;;;;17.37;9.90;;;4.40;90.40;;;;;;5072904;28;20049;-72
2021/03/04 05:08:26;;;;;;;16.17;11.20;;;4.50;90.30;;;;;;5073792;28;20291;-72
2021/03/04 05:10:52;;;;;;;14.87;10.83;;;4.50;90.10;;;;;;5073223;28;20045;-72
2021/03/04 05:13:19;;;;;;;18.00;12.43;;;4.60;90.10;;;;;;5072425;28;20047;-72
2021/03/04 05:15:44;;;;;;;16.70;11.23;;;4.60;90.10;;;;;;5073403;28;20098;-72
2021/03/04 05:18:10;;;;;;;16.90;11.27;;;4.60;90.10;;;;;;5073302;28;20294;-72
2021/03/04 05:20:36;;;;;;;15.97;10.93;;;4.70;90.10;;;;;;5072896;28;20074;-72
2021/03/04 05:23:01;;;;;;;19.00;12.23;;;4.70;90.10;;;;;;5073157;28;20072;-72
2021/03/04 05:25:28;;;;;;;16.33;11.60;;;4.80;90.10;;;;;;5073400;28;20045;-72
2021/03/04 05:27:53;;;;;;;18.50;11.43;;;4.80;90.10;;;;;;5072554;28;20775;-72
2021/03/04 05:30:19;;;;;;;17.83;12.67;;;4.90;90.10;;;;;;5073013;28;20091;-72
2021/03/04 05:32:45;;;;;;;17.30;11.77;;;4.90;90.00;;;;;;5071944;28;20566;-72
2021/03/04 05:35:12;;;;;;;19.37;12.83;;;5.00;89.90;;;;;;5072880;28;20290;-72
2021/03/04 05:37:37;;;;;;;18.30;12.63;;;5.00;89.90;;;;;;5073107;28;20076;-72
2021/03/04 05:40:05;;;;;;;15.40;11.63;;;5.00;89.90;;;;;;5072008;28;20786;-72
2021/03/04 05:42:31;;;;;;;15.97;11.83;;;5.00;89.40;;;;;;5073095;28;20299;-72
2021/03/04 05:44:58;;;;;;;17.23;12.17;;;5.00;89.50;;;;;;5072818;28;20318;-72
2021/03/04 05:47:23;;;;;;;16.30;11.70;;;5.00;89.70;;;;;;5072157;28;20749;-73
2021/03/04 05:50:02;;;;;;;16.67;11.43;;;5.00;89.50;;;;;;5072722;28;20375;-72
2021/03/04 05:52:33;;;;;;;16.03;11.53;;;5.00;89.80;;;;;;5072801;28;20080;-73
2021/03/04 05:55:01;;;;;;;16.03;12.20;;;5.10;89.60;;;;;;5072023;28;20310;-72
2021/03/04 05:57:28;;;;;;;16.33;11.63;;;5.10;89.50;;;;;;5072888;28;20297;-70
2021/03/04 05:59:55;;;;;;;17.63;12.07;;;5.20;89.50;;;;;;5072204;28;20783;-71
2021/03/04 06:02:22;;;;;;;17.10;11.50;;;5.20;89.30;;;;;;5071663;28;20784;-70
2021/03/04 06:04:51;;;;;;;17.23;11.77;;;5.20;89.10;;;;;;5072193;28;20612;-71
2021/03/04 06:07:17;;;;;;;16.30;11.30;;;5.30;89.00;;;;;;5072457;28;20464;-72
2021/03/04 06:09:43;;;;;;;17.90;12.83;;;5.30;89.00;;;;;;5071663;28;20295;-71
2021/03/04 06:12:10;;;;;;;18.73;11.90;;;5.30;88.80;;;;;;5072076;28;20315;-71
2021/03/04 06:14:37;;;;;;;15.20;11.97;;;5.30;88.70;;;;;;5072336;28;20799;-71
2021/03/04 06:17:19;;;;;;;16.10;11.10;;;5.30;88.60;;;;;;5070990;28;20324;-71
2021/03/04 06:19:58;;;;;;;17.90;12.07;;;5.30;88.50;;;;;;5071727;28;20330;-71
2021/03/04 06:22:28;;;;;;;14.27;11.17;;;5.30;88.40;;;;;;5070983;28;20782;-71
2021/03/04 06:24:55;;;;;;;16.17;13.07;;;5.40;88.50;;;;;;5071099;28;20306;-71
2021/03/04 06:27:25;;;;;;;15.43;11.33;;;5.30;88.30;;;;;;5071839;28;20385;-71
2021/03/04 06:30:07;;;;;;;17.63;12.73;;;5.40;88.20;;;;;;5071057;28;20290;-71
2021/03/04 06:32:32;;;;;;;17.63;13.63;;;5.30;88.30;;;;;;5071922;28;20318;-72
2021/03/04 06:35:12;;;;;;;13.53;10.40;;;5.30;88.40;;;;;;5071854;28;20854;-72
2021/03/04 06:37:41;;;;;;;14.70;10.93;;;5.30;88.30;;;;;;5071311;28;20054;-72
2021/03/04 06:40:22;;;;;;;15.87;11.07;;;5.30;88.40;;;;;;5071626;28;20356;-72
2021/03/04 06:42:48;;;;;;;14.60;10.40;;;5.30;88.40;;;;;;5071416;28;20706;-72
2021/03/04 06:45:33;;;;;;;16.30;10.83;;;5.30;88.60;;;;;;5070828;28;20299;-71
2021/03/04 06:48:22;;;;;;;13.67;10.20;;;5.40;88.30;;;;;;5071546;28;20315;-72
2021/03/04 06:50:49;;;;;;;14.80;9.73;;;5.40;88.20;;;;;;5070497;28;20894;-72
2021/03/04 06:53:22;;;;;;;11.20;9.23;;;5.30;88.40;;;;;;5071566;28;20356;-72
2021/03/04 06:55:56;;;;;;;15.63;12.27;;;5.40;88.60;;;;;;5071378;28;20640;-72
2021/03/04 06:58:33;;;;;;;14.27;11.03;;;5.50;88.30;;;;;;5070650;28;20417;-72
2021/03/04 07:01:14;;;;;;;14.00;9.97;;;5.50;87.90;;;;;;5071278;28;20310;-72
2021/03/04 07:03:42;;;;;;;14.23;9.95;;;5.50;88.10;;;;;;5071463;28;20327;-72
2021/03/04 07:06:13;;;;;;;12.00;9.20;;;5.40;87.90;;;;;;5070509;28;20048;-71
2021/03/04 07:08:40;;;;;;;14.90;10.77;;;5.50;88.10;;;;;;5071337;28;20397;-71
2021/03/04 07:11:09;;;;;;;15.10;9.87;;;5.50;88.00;;;;;;5070226;28;20771;-71
2021/03/04 07:13:36;;;;;;;13.53;10.00;;;5.50;88.00;;;;;;5071253;28;20291;-71
2021/03/04 07:16:06;;;;;;;13.67;10.00;;;5.40;88.00;;;;;;5070954;28;20306;-71
2021/03/04 07:18:52;;;;;;;13.03;11.13;;;5.50;87.90;;;;;;5070961;28;20655;-72
2021/03/04 07:21:20;;;;;;;13.50;10.33;;;5.40;87.80;;;;;;5071231;28;20310;-72
2021/03/04 07:23:46;;;;;;;13.80;9.97;;;5.40;87.90;;;;;;5070954;28;20298;-72
2021/03/04 07:26:14;;;;;;;14.57;9.07;;;5.50;88.00;;;;;;5070208;28;20820;-71
2021/03/04 07:28:43;;;;;;;13.87;9.40;;;5.50;87.90;;;;;;5070979;28;20743;-71
2021/03/04 07:31:10;;;;;;;14.07;9.20;;;5.50;87.80;;;;;;5070855;28;20723;-71
2021/03/04 07:33:37;;;;;;;13.00;9.57;;;5.60;87.70;;;;;;5070458;28;20310;-70
2021/03/04 07:36:08;;;;;;;14.53;11.17;;;5.60;87.50;;;;;;5071422;28;20356;-71
2021/03/04 07:38:35;;;;;;;10.50;8.27;;;5.70;87.50;;;;;;5075315;28;20787;-71
2021/03/04 07:41:13;;;;;;;14.50;9.93;;;5.70;87.40;;;;;;5073931;28;20299;-71
2021/03/04 07:43:57;;;;;;;12.03;9.53;;;5.70;87.20;;;;;;5074672;28;20302;-71
2021/03/04 07:46:38;;;;;;;12.77;9.87;;;5.70;87.10;;;;;;5074238;28;20299;-70
2021/03/04 07:49:08;;;;;;;14.83;10.30;;;5.70;87.20;;;;;;5074752;28;20694;-71
2021/03/04 07:51:42;;;;;;;13.17;9.57;;;5.80;87.20;;;;;;5075270;28;20311;-70
2021/03/04 07:54:09;;;;;;;11.87;8.93;;;5.80;86.90;;;;;;5074256;28;20294;-71
2021/03/04 07:56:34;;;;;;;12.47;8.60;;;5.80;86.90;;;;;;5075223;28;20667;-71
2021/03/04 07:59:14;;;;;;;14.23;10.37;;;5.90;87.00;;;;;;5074918;28;20298;-71
2021/03/04 08:01:56;;;;;;;11.93;9.40;;;5.90;86.60;;;;;;5074055;28;20052;-71
2021/03/04 08:04:23;;;;;;;13.15;9.55;;;5.90;86.70;;;;;;5074895;28;20311;-71
2021/03/04 08:06:53;;;;;;;12.43;9.50;;;5.80;86.60;;;;;;5074839;28;20398;-71
2021/03/04 08:09:27;;;;;;;12.07;9.67;;;5.80;86.70;;;;;;5073695;28;20352;-71
2021/03/04 08:12:04;;;;;;;13.67;9.63;;;5.90;86.80;;;;;;5074413;28;20372;-71
2021/03/04 08:14:30;;;;;;;13.60;10.10;;;5.90;86.70;;;;;;5074178;28;20757;-71
2021/03/04 08:16:56;;;;;;;12.07;9.70;;;5.90;86.40;;;;;;5074527;28;20356;-71
2021/03/04 08:19:32;;;;;;;12.50;8.83;;;5.90;86.50;;;;;;5074514;28;20076;-70
2021/03/04 08:22:06;;;;;;;13.30;8.93;;;5.90;86.40;;;;;;5073451;28;20506;-71
2021/03/04 08:24:34;;;;;;;12.30;9.63;;;5.80;86.40;;;;;;5074556;28;20294;-72
2021/03/04 08:27:01;;;;;;;12.03;9.43;;;5.80;86.40;;;;;;5074266;28;20298;-72
2021/03/04 08:29:26;;;;;;;10.13;7.63;;;5.80;86.60;;;;;;5073751;28;20359;-71
2021/03/04 08:31:55;;;;;;;13.37;9.20;;;5.90;86.70;;;;;;5073793;28;20310;-71
2021/03/04 08:34:21;;;;;;;13.50;9.23;;;5.90;86.40;;;;;;5073916;28;20045;-71
2021/03/04 08:36:51;;;;;;;11.20;7.97;;;5.90;86.50;;;;;;5073364;28;20378;-71
2021/03/04 08:39:22;;;;;;;12.30;9.63;;;6.00;86.50;;;;;;5073939;28;20301;-71
2021/03/04 08:41:48;;;;;;;9.70;7.32;;;6.00;86.20;;;;;;5074277;28;20710;-71
2021/03/04 08:44:16;;;;;;;10.67;8.30;;;5.90;86.20;;;;;;5073415;28;20140;-71
2021/03/04 08:46:46;;;;;;;12.33;8.97;;;6.00;86.50;;;;;;5073933;28;20198;-71
2021/03/04 08:49:18;;;;;;;12.43;9.93;;;6.00;86.10;;;;;;5073084;28;20295;-71
2021/03/04 08:51:44;;;;;;;10.37;8.77;;;6.00;86.10;;;;;;5072805;28;20315;-71
2021/03/04 08:54:23;;;;;;;14.50;7.03;;;6.10;86.00;;;;;;5072714;28;20291;-71
2021/03/04 08:57:01;;;;;;;10.70;8.43;;;6.10;85.90;;;;;;5073131;28;20298;-71
2021/03/04 08:59:27;;;;;;;11.67;9.10;;;6.20;85.90;;;;;;5074116;28;20317;-71
2021/03/04 09:01:57;;;;;;;12.77;8.20;;;6.20;85.80;;;;;;5073567;28;20356;-71
2021/03/04 09:04:27;;;;;;;9.60;7.80;;;6.30;85.60;;;;;;5072917;28;20299;-71
2021/03/04 09:06:54;;;;;;;10.13;8.37;;;6.30;85.50;;;;;;5073675;28;20677;-71
2021/03/04 09:09:29;;;;;;;12.10;7.80;;;6.30;85.50;;;;;;5073584;28;20299;-71
2021/03/04 09:11:56;;;;;;;9.77;7.53;;;6.40;85.10;;;;;;5072725;28;20317;-70
2021/03/04 09:14:40;;;;;;;9.70;6.70;;;6.50;85.10;;;;;;5073367;28;20393;-70
2021/03/04 09:17:08;;;;;;;10.83;7.67;;;6.50;84.80;;;;;;5073148;28;20303;-70
2021/03/04 09:19:39;;;;;;;10.23;7.17;;;6.50;84.80;;;;;;5072984;28;20295;-69
2021/03/04 09:22:11;;;;;;;9.00;6.67;;;6.50;84.60;;;;;;5073205;28;20294;-69
2021/03/04 09:24:41;;;;;;;9.40;6.00;;;6.50;84.50;;;;;;5073556;28;20317;-69
2021/03/04 09:27:08;;;;;;;9.83;7.20;;;6.50;84.60;;;;;;5072715;28;20394;-70
2021/03/04 09:29:38;;;;;;;7.53;6.70;;;6.60;84.60;;;;;;5073582;28;20381;-70
2021/03/04 09:32:04;;;;;;;8.13;5.73;;;6.60;84.60;;;;;;5072255;28;20312;-70
2021/03/04 09:34:42;;;;;;;8.83;6.33;;;6.60;84.80;;;;;;5073381;28;20789;-70
2021/03/04 09:37:25;;;;;;;6.53;5.73;;;6.70;84.70;;;;;;5073091;28;20045;-70
2021/03/04 09:39:53;;;;;;;7.63;6.23;;;6.80;84.50;;;;;;5072269;28;20303;-70
2021/03/04 09:42:33;;;;;;;8.17;6.00;;;6.90;84.30;;;;;;5072619;28;20331;-70
2021/03/04 09:45:11;;;;;;;8.80;6.00;;;6.90;84.00;;;;;;5072928;28;20349;-70
2021/03/04 09:47:42;;;;;;;9.07;5.87;;;7.00;84.00;;;;;;5072279;28;20730;-70
2021/03/04 09:50:28;;;;;;;9.13;6.40;;;7.00;84.10;;;;;;5072667;28;20291;-71
2021/03/04 09:53:04;;;;;;;8.70;5.93;;;7.20;83.90;;;;;;5071733;28;20493;-71
2021/03/04 09:55:41;;;;;;;7.57;6.50;;;7.20;83.90;;;;;;5072868;28;20311;-71
2021/03/04 09:58:19;;;;;;;7.57;5.20;;;7.40;83.80;;;;;;5072537;28;20676;-71
2021/03/04 10:00:46;;;;;;;7.83;5.67;;;7.50;83.70;;;;;;5070636;28;20302;-73
2021/03/04 10:03:13;;;;;;;10.53;6.50;;;7.50;84.50;;;;;;5072220;28;20783;-73
2021/03/04 10:05:50;;;;;;;9.30;5.03;;;7.50;82.90;;;;;;5072164;28;20724;-73
2021/03/04 10:08:17;;;;;;;6.77;4.63;;;7.50;83.20;;;;;;5071560;28;20361;-73
2021/03/04 10:10:44;;;;;;;10.50;5.70;;;7.60;83.00;;;;;;5072079;28;20314;-73
2021/03/04 10:13:11;;;;;;;7.70;4.27;;;7.60;82.50;;;;;;5072159;28;20674;-74
2021/03/04 10:15:39;;;;;;;6.87;4.33;;;7.60;83.50;;;;;;5071791;28;20299;-71
2021/03/04 10:18:13;;;;;;;7.80;3.57;;;7.70;82.60;;;;;;5072192;28;20291;-72
2021/03/04 10:20:41;;;;;;;6.87;3.40;;;7.70;82.40;;;;;;5071993;28;20332;-73
2021/03/04 10:23:08;;;;;;;5.43;4.20;;;7.80;82.30;;;;;;5071138;28;20326;-72
2021/03/04 10:25:34;;;;;;;5.67;3.23;;;7.80;81.70;;;;;;5072129;28;20356;-72
2021/03/04 10:28:02;;;;;;;8.00;4.23;;;7.80;81.60;;;;;;5071380;28;20305;-71
2021/03/04 10:30:28;;;;;;;5.30;3.00;;;7.80;81.70;;;;;;5072226;28;20298;-71
2021/03/04 10:32:54;;;;;;;6.63;3.20;;;7.90;81.80;;;;;;5071478;28;20806;-68
2021/03/04 10:35:21;;;;;;;5.27;2.83;;;8.00;81.60;;;;;;5070957;28;20302;-69
2021/03/04 10:37:47;;;;;;;4.33;3.40;;;8.10;81.40;;;;;;5071754;28;20144;-71
2021/03/04 10:40:14;;;;;;;8.93;3.53;;;8.20;81.10;;;;;;5071705;28;20385;-70
2021/03/04 10:42:40;;;;;;;7.00;3.10;;;8.20;80.80;;;;;;5071080;28;20158;-71
2021/03/04 10:45:10;;;;;;;8.90;2.83;;;8.20;80.60;;;;;;5071746;28;20298;-70
2021/03/04 10:47:36;;;;;;;4.73;3.13;;;8.30;80.80;;;;;;5071745;28;20536;-70
2021/03/04 10:50:04;;;;;;;7.87;3.60;;;8.40;80.50;;;;;;5070504;28;20318;-71
2021/03/04 10:52:29;;;;;;;5.40;3.30;;;8.50;80.20;;;;;;5071689;28;20094;-69
2021/03/04 10:54:55;;;;;;;4.27;2.87;;;8.50;79.80;;;;;;5071498;28;20485;-69
2021/03/04 10:57:20;;;;;;;9.87;4.00;;;8.40;79.60;;;;;;5070683;28;20059;-71
2021/03/04 10:59:46;;;;;;;8.80;3.17;;;8.40;79.80;;;;;;5071530;28;20048;-71
2021/03/04 11:02:12;;;;;;;9.17;4.97;;;8.40;79.50;;;;;;5070961;28;20072;-72
2021/03/04 11:04:39;;;;;;;9.00;4.10;;;8.50;80.80;;;;;;5070708;28;20493;-70
2021/03/04 11:07:05;;;;;;;10.00;4.70;;;8.50;79.80;;;;;;5071075;28;20302;-69
2021/03/04 11:09:30;;;;;;;8.90;3.43;;;8.60;79.50;;;;;;5071599;28;20060;-71
2021/03/04 11:11:56;;;;;;;10.20;3.87;;;8.70;79.20;;;;;;5069989;28;20048;-70
2021/03/04 11:14:21;;;;;;;7.77;3.20;;;8.70;78.90;;;;;;5071246;28;20071;-70
2021/03/04 11:16:47;;;;;;;9.40;3.60;;;8.60;78.70;;;;;;5071427;28;20555;-70
2021/03/04 11:19:13;;;;;;;6.90;2.67;;;8.60;78.90;;;;;;5070463;28;20131;-72
2021/03/04 11:21:40;;;;;;;8.17;3.23;;;8.60;79.00;;;;;;5071052;28;20084;-72
2021/03/04 11:24:07;;;;;;;10.63;3.10;;;8.60;78.40;;;;;;5071290;28;20072;-72
2021/03/04 11:26:37;;;;;;;8.57;2.03;;;8.70;79.10;;;;;;5070989;28;20102;-70
2021/03/04 11:29:06;;;;;;;9.97;2.30;;;8.70;77.60;;;;;;5071133;28;20090;-73
2021/03/04 11:31:33;;;;;;;6.90;1.53;;;8.50;75.30;;;;;;5070910;28;20049;-69
2021/03/04 11:34:00;;;;;;;10.70;2.17;;;8.20;74.90;;;;;;5070981;28;20311;-69
2021/03/04 11:36:27;;;;;;;9.63;2.67;;;8.00;75.50;;;;;;5071038;28;20350;-69
2021/03/04 11:38:53;;;;;;;8.33;2.20;;;7.90;74.90;;;;;;5070240;28;20659;-70
2021/03/04 11:41:18;;;;;;;8.97;1.70;;;7.70;73.30;;;;;;5071227;28;20306;-71
2021/03/04 11:43:44;;;;;;;8.17;1.50;;;7.50;73.80;;;;;;5071040;28;20564;-71
2021/03/04 11:46:11;;;;;;;8.47;1.70;;;7.50;74.10;;;;;;5069762;28;20048;-70
2021/03/04 11:48:37;;;;;;;11.07;1.73;;;7.40;73.80;;;;;;5071047;28;20044;-70
2021/03/04 11:51:03;;;;;;;11.30;1.97;;;7.40;73.40;;;;;;5070361;28;20314;-70
2021/03/04 11:53:28;;;;;;;10.10;2.00;;;7.30;72.90;;;;;;5069832;28;20041;-69
2021/03/04 11:55:54;;;;;;;9.40;2.00;;;7.30;73.20;;;;;;5070759;28;20079;-70
2021/03/04 11:58:20;;;;;;;14.73;2.53;;;7.20;73.40;;;;;;5070521;28;20045;-70
2021/03/04 12:00:45;;;;;;;12.13;2.87;;;7.20;74.10;;;;;;5069857;28;20051;-70
2021/03/04 12:03:11;;;;;;;16.77;2.70;;;7.10;74.70;;;;;;5070767;28;20102;-70
2021/03/04 12:05:37;;;;;;;17.77;2.87;;;7.00;75.60;;;;;;5070773;28;20063;-70
2021/03/04 12:08:03;;;;;;;22.90;4.47;;;6.90;76.30;;;;;;5069744;28;20381;-69
2021/03/04 12:10:29;;;;;;;15.77;3.30;;;6.80;77.00;;;;;;5070954;28;20054;-69
2021/03/04 12:12:54;;;;;;;17.63;3.63;;;6.70;77.40;;;;;;5070701;28;20056;-69
2021/03/04 12:15:21;;;;;;;16.33;2.97;;;6.70;77.70;;;;;;5069921;28;20082;-69
2021/03/04 12:17:47;;;;;;;10.77;2.83;;;6.60;78.50;;;;;;5070627;28;20048;-68
2021/03/04 12:20:13;;;;;;;21.30;4.30;;;6.50;78.60;;;;;;5070321;28;20299;-68
2021/03/04 12:22:38;;;;;;;16.37;3.77;;;6.50;79.10;;;;;;5070116;28;20068;-69
2021/03/04 12:25:06;;;;;;;13.20;4.53;;;6.50;79.10;;;;;;5074564;28;20813;-72
2021/03/04 12:27:32;;;;;;;21.33;3.97;;;6.60;79.30;;;;;;5074321;28;20048;-68
2021/03/04 12:29:58;;;;;;;13.83;3.70;;;6.60;79.50;;;;;;5069267;28;20348;-68
2021/03/04 12:32:23;;;;;;;21.40;7.67;;;6.60;79.70;;;;;;5066657;28;20315;-69
2021/03/04 12:34:49;;;;;;;21.27;4.47;;;6.50;80.30;;;;;;5068449;28;20801;-70
2021/03/04 12:37:15;;;;;;;23.80;7.00;;;6.50;80.50;;;;;;5071210;28;20496;-71
2021/03/04 12:39:41;;;;;;;22.20;4.80;;;6.40;80.90;;;;;;5070552;28;20098;-70
2021/03/04 12:42:06;;;;;;;23.90;6.27;;;6.40;81.70;;;;;;5070050;28;20134;-69
2021/03/04 12:44:32;;;;;;;21.53;4.53;;;6.40;80.90;;;;;;5070678;28;20079;-69
2021/03/04 12:46:58;;;;;;;22.30;4.53;;;6.40;80.60;;;;;;5070915;28;20398;-69
2021/03/04 12:49:23;;;;;;;24.47;4.63;;;6.50;80.20;;;;;;5068982;28;20409;-70